Chisholm-hibbing, MN

6:53 AM CDT on July 28, 2014 (GMT -0500)
Chisholm-hibbing (KHIB) Elev 1352 ft | 47.39 °N, 92.84 °W | Change Station

Current weather conditions updated 1 hour ago

Overcast
Overcast
57 °F
Feels Like 57 °F
N
4
Wind Variable Wind from North

Today is forecast to be Warmer than yesterday.

Today
High -- | Low -- °F
--% Chance of Precip.
Yesterday
High -- | Low -- °F
Precip. -- in
5:44 AM 8:50 PM
New Moon, 2% visible
Pressure 30.19 in
Visibility 10.0 miles
Clouds Overcast 6500 ft
Dew Point 52 °F
Humidity 83%
Rainfall 0.00 in
Snow Depth Not available.
UV 0 out of 12
Pollen 5.70 out of 12
Air Quality Not available.
Flu Activity Not available.
METAR KHIB 281053Z AUTO 35003KT 10SM OVC065 14/11 A3018 RMK AO2 SLP222 T01390111 PNO $

More Conditions Fewer Conditions

Pressure 30.19 in
Visibility 10.0 miles
Clouds Overcast 6500 ft
Dew Point 52 °F
Humidity 83%
Rainfall 0.00 in
Snow Depth Not available.
UV 0 out of 12
Pollen 5.70 out of 12
Air Quality Not available.
Flu Activity Not available.
METAR KHIB 281053Z AUTO 35003KT 10SM OVC065 14/11 A3018 RMK AO2 SLP222 T01390111 PNO $

More Conditions Fewer Conditions

10-Day Weather Forecast

Almanac

Astronomy

Jul. 28, 2014 Rise Set
Actual Time 5:44 AM CDT 8:50 PM CDT
Civil Twilight 5:08 AM CDT 9:26 PM CDT
Nautical Twilight 4:20 AM CDT 10:13 PM CDT
Astronomical Twilight 3:22 AM CDT 11:11 PM CDT
Moon 7:37 AM CDT 9:19 PM CDT
Length of Visible Light 16h 18m
Length of Day
15h 05m
Tomorrow will be 2m 30s shorter.
New Moon, 2% of the Moon is Illuminated
Today
New Moon
Aug 3
First Quarter
Aug 10
Full
Aug 17
Last Quarter
Aug 25
New

Today's Extremes

State Highs State Lows

Community

WunderPhotos

Upload Photos

1,738,304 photos uploaded!

Nearby

Snow Depth

Station Depth Elevation
No new snow has been reported.

Earthquake Activity

City Distance Mag. Time & Date
No recent earthquake activity has been reported nearby.
Minimum magnitude displayed is 2.5.

Coastal Water Temperatures

Place Temperature
No Stations Reporting

Nearby Weather Stations

Station Location Temp. Dew Point Humidity Wind Precip. Elev Updated Type
Leisure Lake,Mn, Makinen, MN 53.4 °F 52 °F 95% ESE  at  0.0 mph - / hr 1427 ft 6:43 AM CDT Normal

Show More Stations Show Fewer Stations